Search for airport 
image banner adimage banner adimage banner ad
image banner ad

63CN - Meadowlark Field

Located in Livermore, United States

ICAO - 63CN, IATA -

Data provided by Airmate  

General information

Coordinates: N37°39'41" W121°41'37"
Elevation is 730 feet MSL.
Magnetic variation is 16° East
View others Airports in California

Operational data

Special qualification required
Current time UTC:
Current local time:
Weather at : KLVK - Livermore Muni ( 12 km )
METAR: KLVK 141053Z AUTO 26003KT 10SM CLR 17/15 A3000 RMK AO2 SLP153 T01670150
TAF: KLVK 140626Z 1406/1506 25005KT P6SM OVC012 FM141700 25010KT P6SM FEW015 FM142000 27016KT P6SM SKC FM150400 26010KT P6SM SKC
View NOTAMs / SUP AIP / TFR affecting this airport [VIEW]
Communications frequencies: [VIEW]

Runways:

RWY identifierQFULength (ft)Width (ft)SurfaceLDA (ft)
07186025OTHER
25186025OTHER

Airport contact information

Address: Livermore United States

Satellite view of 63CN